Time;durP1;ratioP1;P1;durP2;ratioP2;P2;SDS_P1;SDS_P2;PMS_P1;PMS_P2;Temp;Humidity;BMP_temperature;BMP_pressure;BME280_temperature;BME280_humidity;BME280_pressure;Samples;Min_cycle;Max_cycle;Signal;HPM_P1;HPM_P2
2022/01/03 00:00:24;;;;;;;;;;;13.90;67.40;;;;;;5076989;28;20051;-68
2022/01/03 00:02:53;;;;;;;1.23;0.20;;;13.90;67.50;;;;;;5076161;28;19916;-67
2022/01/03 00:05:19;;;;;;;2.83;0.30;;;13.90;67.40;;;;;;5076241;28;20042;-67
2022/01/03 00:07:46;;;;;;;2.13;0.40;;;13.90;67.40;;;;;;5076102;28;20048;-67
2022/01/03 00:10:14;;;;;;;3.28;0.30;;;13.90;67.50;;;;;;5076099;28;20040;-67
2022/01/03 00:12:40;;;;;;;3.53;0.22;;;13.90;67.40;;;;;;5076077;28;20407;-67
2022/01/03 00:15:09;;;;;;;3.30;0.47;;;13.90;67.40;;;;;;5107482;28;20032;-67
2022/01/03 00:17:35;;;;;;;4.15;0.47;;;13.90;67.40;;;;;;5114045;28;20050;-67
2022/01/03 00:20:01;;;;;;;1.42;0.57;;;13.90;67.40;;;;;;5114500;28;20441;-67
2022/01/03 00:22:31;;;;;;;3.00;0.30;;;13.80;67.40;;;;;;5114335;28;20035;-68
2022/01/03 00:24:59;;;;;;;;;;;13.90;67.50;;;;;;5096460;28;20487;-67
2022/01/03 00:27:32;;;;;;;3.15;0.20;;;13.90;67.40;;;;;;5096274;28;19915;-67
2022/01/03 00:29:57;;;;;;;2.67;0.30;;;13.90;67.40;;;;;;5114175;28;20153;-67
2022/01/03 00:32:25;;;;;;;4.80;0.43;;;13.90;67.40;;;;;;5114118;28;20040;-68
2022/01/03 00:34:55;;;;;;;4.07;0.50;;;13.90;67.40;;;;;;5095996;28;20043;-67
2022/01/03 00:37:23;;;;;;;4.65;0.65;;;13.90;67.40;;;;;;5114025;28;20359;-67
2022/01/03 00:39:50;;;;;;;3.92;0.50;;;13.90;67.40;;;;;;5113953;28;20104;-67
2022/01/03 00:42:16;;;;;;;4.00;0.38;;;13.80;67.30;;;;;;5095888;28;20493;-67
2022/01/03 00:44:43;;;;;;;2.53;0.85;;;13.80;67.30;;;;;;5113745;28;20115;-68
2022/01/03 00:47:10;;;;;;;5.43;0.40;;;13.90;67.40;;;;;;5095607;28;20069;-67
2022/01/03 00:49:38;;;;;;;3.25;0.32;;;13.80;67.20;;;;;;5113771;28;20409;-67
2022/01/03 00:52:04;;;;;;;2.65;0.47;;;13.90;67.30;;;;;;5113770;28;20118;-67
2022/01/03 00:54:30;;;;;;;3.53;0.50;;;13.90;67.20;;;;;;5095337;28;20119;-67
2022/01/03 00:57:02;;;;;;;3.05;0.35;;;13.90;67.20;;;;;;5113712;28;20031;-67
2022/01/03 00:59:36;;;;;;;5.57;0.50;;;13.80;67.20;;;;;;5113825;28;20055;-67
2022/01/03 01:02:02;;;;;;;4.45;1.50;;;13.80;67.20;;;;;;5112909;28;20437;-67
2022/01/03 01:04:28;;;;;;;3.47;0.47;;;13.80;67.10;;;;;;5095137;28;20039;-67
2022/01/03 01:06:56;;;;;;;3.95;0.60;;;13.90;67.10;;;;;;5095196;28;20084;-67
2022/01/03 01:09:24;;;;;;;5.15;0.70;;;13.80;67.10;;;;;;5113353;28;20039;-67
2022/01/03 01:11:57;;;;;;;3.35;0.52;;;13.90;67.10;;;;;;5113326;28;20048;-67
2022/01/03 01:14:24;;;;;;;2.85;0.60;;;13.90;67.20;;;;;;5113197;28;20042;-67
2022/01/03 01:16:50;;;;;;;5.28;0.50;;;13.80;67.10;;;;;;5095451;28;20040;-69
2022/01/03 01:19:18;;;;;;;4.45;1.05;;;13.80;67.00;;;;;;5094570;28;20518;-67
2022/01/03 01:21:47;;;;;;;6.32;0.63;;;13.90;67.00;;;;;;5094719;28;20471;-67
2022/01/03 01:24:17;;;;;;;5.25;0.60;;;13.80;67.10;;;;;;5095063;28;20051;-67
2022/01/03 01:29:29;;;;;;;3.90;0.50;;;13.90;67.00;;;;;;5094500;28;20047;-67
2022/01/03 01:31:58;;;;;;;3.78;1.30;;;13.80;66.90;;;;;;5094908;28;20043;-67
2022/01/03 01:34:28;;;;;;;6.88;0.82;;;13.90;67.00;;;;;;5094813;28;20044;-67
2022/01/03 01:36:56;;;;;;;7.65;0.65;;;13.90;66.90;;;;;;5094538;28;20505;-67
2022/01/03 01:39:24;;;;;;;2.85;0.40;;;13.90;66.90;;;;;;5112687;28;20146;-67
2022/01/03 01:41:55;;;;;;;5.25;0.50;;;13.80;66.80;;;;;;5112949;28;20398;-67
2022/01/03 01:44:22;;;;;;;4.00;1.17;;;13.90;66.90;;;;;;5112714;28;20043;-67
2022/01/03 01:46:53;;;;;;;3.75;0.50;;;13.90;66.80;;;;;;5094495;28;20085;-67
2022/01/03 01:49:21;;;;;;;4.50;0.88;;;13.90;66.80;;;;;;5094742;28;20062;-67
2022/01/03 01:51:56;;;;;;;5.65;0.60;;;13.90;66.80;;;;;;5112703;28;20387;-67
2022/01/03 01:54:32;;;;;;;6.47;0.50;;;13.90;66.80;;;;;;5094601;28;20043;-67
2022/01/03 01:57:17;;;;;;;3.92;0.57;;;13.90;67.50;;;;;;5094270;28;20043;-67
2022/01/03 02:00:11;;;;;;;7.57;0.80;;;13.80;66.70;;;;;;5094653;28;20043;-67
2022/01/03 02:02:46;;;;;;;4.15;0.57;;;13.90;66.70;;;;;;5094069;28;20071;-68
2022/01/03 02:11:30;;;;;;;6.93;0.60;;;13.80;66.60;;;;;;5130323;27;20917;-67
2022/01/03 02:13:56;;;;;;;5.60;0.80;;;13.80;66.60;;;;;;5128618;28;20075;-67
2022/01/03 02:16:22;;;;;;;6.65;0.80;;;13.80;66.70;;;;;;5128975;28;20512;-67
2022/01/03 02:18:51;;;;;;;9.07;1.00;;;13.80;66.60;;;;;;5129074;28;20118;-67
2022/01/03 02:21:18;;;;;;;6.57;1.00;;;13.80;66.60;;;;;;5128824;28;20541;-67
2022/01/03 02:23:44;;;;;;;5.20;0.50;;;13.80;66.60;;;;;;5128775;28;20096;-67
2022/01/03 02:26:10;;;;;;;5.70;0.90;;;13.80;66.60;;;;;;5130487;27;20413;-67
2022/01/03 02:28:36;;;;;;;7.80;0.95;;;13.80;66.50;;;;;;5128928;28;20036;-68
2022/01/03 02:31:02;;;;;;;4.60;0.50;;;13.80;66.50;;;;;;5130051;28;20053;-67
2022/01/03 02:33:28;;;;;;;5.40;0.90;;;13.80;66.50;;;;;;5128804;28;20036;-67
2022/01/03 02:35:53;;;;;;;4.85;0.50;;;13.80;66.50;;;;;;5128607;28;20074;-68
2022/01/03 02:38:19;;;;;;;5.85;1.25;;;13.80;66.50;;;;;;5128413;28;20052;-67
2022/01/03 02:40:45;;;;;;;4.65;0.40;;;13.80;66.50;;;;;;5128754;28;20039;-68
2022/01/03 02:43:16;;;;;;;4.20;0.70;;;13.80;66.50;;;;;;5128533;28;20043;-68
2022/01/03 02:45:42;;;;;;;7.28;0.90;;;13.80;66.40;;;;;;5128637;28;20104;-67
2022/01/03 02:48:12;;;;;;;6.65;1.30;;;13.80;66.40;;;;;;5128543;28;20043;-67
2022/01/03 02:50:39;;;;;;;6.65;1.15;;;13.80;66.40;;;;;;5129482;27;20039;-67
2022/01/03 02:53:08;;;;;;;6.45;0.95;;;13.80;66.40;;;;;;5128285;28;20036;-67
2022/01/03 02:55:33;;;;;;;4.72;0.63;;;13.80;66.30;;;;;;5128229;28;20076;-67
2022/01/03 02:58:06;;;;;;;4.75;0.60;;;13.80;66.30;;;;;;5128330;28;20035;-67
2022/01/03 03:00:35;;;;;;;5.70;0.73;;;13.80;66.30;;;;;;5128316;28;20043;-68
2022/01/03 03:03:03;;;;;;;5.18;0.75;;;13.80;66.30;;;;;;5128374;28;20390;-67
2022/01/03 03:05:29;;;;;;;5.03;0.70;;;13.80;66.30;;;;;;5128135;28;20064;-68
2022/01/03 03:07:57;;;;;;;7.20;1.10;;;13.80;66.30;;;;;;5129254;27;20035;-68
2022/01/03 03:10:25;;;;;;;5.82;0.93;;;13.80;66.30;;;;;;5127363;28;20051;-68
2022/01/03 03:12:52;;;;;;;6.72;0.80;;;13.80;66.20;;;;;;5129078;27;20054;-67
2022/01/03 03:15:17;;;;;;;5.32;1.00;;;13.80;66.20;;;;;;5128946;27;20035;-67
2022/01/03 03:17:45;;;;;;;4.78;0.77;;;13.80;66.20;;;;;;5127910;27;20055;-67
2022/01/03 03:20:13;;;;;;;5.57;1.25;;;13.80;66.20;;;;;;5125551;28;20050;-67
2022/01/03 03:22:39;;;;;;;2.72;0.93;;;13.80;66.30;;;;;;5113903;28;20554;-67
2022/01/03 03:25:10;;;;;;;5.55;0.70;;;13.90;66.10;;;;;;5113952;28;20039;-67
2022/01/03 03:27:42;;;;;;;;;;;14.10;65.90;;;;;;5115556;28;20084;-67
2022/01/03 03:30:09;;;;;;;4.63;0.88;;;14.50;65.20;;;;;;5113820;28;20389;-67
2022/01/03 03:32:35;;;;;;;3.65;0.60;;;15.30;62.90;;;;;;5114231;28;20035;-67
2022/01/03 03:35:01;;;;;;;4.22;0.98;;;16.20;60.10;;;;;;5114849;28;20474;-67
2022/01/03 03:37:26;;;;;;;3.75;0.45;;;17.30;57.30;;;;;;5113747;28;20069;-67
2022/01/03 03:39:52;;;;;;;4.28;0.98;;;18.30;54.60;;;;;;5113831;28;20056;-67
2022/01/03 03:42:19;;;;;;;4.38;0.68;;;19.20;52.40;;;;;;5113537;28;20036;-68
2022/01/03 03:44:47;;;;;;;5.82;0.73;;;19.90;50.70;;;;;;5113482;28;20040;-67
2022/01/03 03:47:14;;;;;;;4.55;0.77;;;20.50;49.60;;;;;;5113804;28;20422;-67
2022/01/03 03:49:40;;;;;;;3.28;0.60;;;20.60;49.20;;;;;;5113436;28;20527;-67
2022/01/03 03:52:06;;;;;;;3.67;0.75;;;20.70;49.10;;;;;;5113339;28;20044;-67
2022/01/03 03:54:35;;;;;;;3.83;0.80;;;20.70;49.00;;;;;;5113784;28;20051;-68
2022/01/03 03:57:02;;;;;;;3.40;0.60;;;20.70;49.00;;;;;;5113491;28;20040;-67
2022/01/03 03:59:31;;;;;;;5.32;1.30;;;20.70;48.90;;;;;;5113520;28;20062;-68
2022/01/03 04:01:57;;;;;;;4.07;0.73;;;20.70;48.60;;;;;;5114483;28;20032;-67
2022/01/03 04:04:23;;;;;;;3.53;0.57;;;20.70;48.50;;;;;;5113431;28;20390;-67
2022/01/03 04:06:49;;;;;;;2.95;0.65;;;20.80;48.50;;;;;;5113300;28;20039;-67
2022/01/03 04:09:15;;;;;;;4.68;0.77;;;20.70;48.50;;;;;;5114204;28;20510;-67
2022/01/03 04:11:41;;;;;;;5.93;1.00;;;20.60;48.50;;;;;;5112953;28;20118;-67
2022/01/03 04:14:07;;;;;;;4.30;0.60;;;20.60;48.60;;;;;;5114225;28;20080;-67
2022/01/03 04:16:34;;;;;;;3.95;0.52;;;20.40;48.70;;;;;;5113106;28;20073;-67
2022/01/03 04:19:00;;;;;;;5.57;1.05;;;20.30;48.90;;;;;;5112837;28;20039;-67
2022/01/03 04:21:26;;;;;;;5.43;0.80;;;20.20;49.20;;;;;;5112999;28;20082;-67
2022/01/03 04:23:53;;;;;;;4.78;0.93;;;20.00;49.50;;;;;;5112812;28;20040;-68
2022/01/03 04:26:22;;;;;;;5.70;0.90;;;19.80;49.70;;;;;;5096160;28;20052;-67
2022/01/03 04:28:48;;;;;;;2.95;0.52;;;19.70;50.10;;;;;;5113097;28;20331;-67
2022/01/03 04:31:14;;;;;;;5.45;1.15;;;19.50;50.30;;;;;;5113916;28;20032;-67
2022/01/03 04:33:39;;;;;;;2.92;0.50;;;19.40;50.60;;;;;;5111800;28;20043;-67
2022/01/03 04:36:07;;;;;;;7.22;0.88;;;19.20;50.80;;;;;;5112495;28;20050;-67
2022/01/03 04:38:33;;;;;;;4.32;0.77;;;19.10;51.10;;;;;;5112795;28;20055;-67
2022/01/03 04:41:00;;;;;;;5.22;0.98;;;19.00;51.30;;;;;;5112781;28;20042;-67
2022/01/03 04:43:26;;;;;;;6.72;1.13;;;18.80;51.50;;;;;;5112788;28;20078;-67
2022/01/03 04:45:52;;;;;;;5.47;0.60;;;18.70;51.70;;;;;;5112383;28;20039;-67
2022/01/03 04:48:18;;;;;;;4.80;0.50;;;18.60;52.00;;;;;;5112236;28;20048;-67
2022/01/03 04:50:44;;;;;;;5.28;0.70;;;18.50;52.20;;;;;;5113402;28;20180;-67
2022/01/03 04:53:09;;;;;;;5.72;1.20;;;18.40;52.40;;;;;;5112111;28;20479;-67
2022/01/03 04:55:38;;;;;;;6.35;1.33;;;18.30;52.70;;;;;;5112666;28;20031;-67
2022/01/03 04:58:04;;;;;;;4.47;1.05;;;18.20;53.00;;;;;;5113321;28;20167;-67
2022/01/03 05:00:29;;;;;;;4.45;0.63;;;18.00;53.20;;;;;;5111706;28;20214;-67
2022/01/03 05:02:55;;;;;;;8.10;1.35;;;18.00;53.50;;;;;;5112308;28;20135;-67
2022/01/03 05:05:22;;;;;;;4.63;1.00;;;17.80;53.60;;;;;;5112203;28;20501;-67
2022/01/03 05:07:47;;;;;;;4.63;0.60;;;17.70;53.90;;;;;;5112190;28;20188;-67
2022/01/03 05:10:14;;;;;;;5.45;0.85;;;17.60;54.10;;;;;;5112955;28;20594;-67
2022/01/03 05:12:42;;;;;;;5.50;1.25;;;17.50;54.30;;;;;;5113214;28;20044;-67
2022/01/03 05:15:08;;;;;;;6.20;1.10;;;17.40;54.60;;;;;;5111765;28;20479;-67
2022/01/03 05:17:34;;;;;;;5.07;1.23;;;17.30;54.90;;;;;;5113094;28;20109;-67
2022/01/03 05:19:59;;;;;;;6.15;1.10;;;17.10;55.20;;;;;;5112940;28;20073;-67
2022/01/03 05:22:25;;;;;;;5.10;1.25;;;17.00;55.50;;;;;;5111630;28;20092;-68
2022/01/03 05:24:51;;;;;;;5.38;0.85;;;16.80;55.80;;;;;;5111835;28;20038;-67
2022/01/03 05:27:17;;;;;;;4.28;0.70;;;16.80;56.20;;;;;;5113214;28;20478;-67
2022/01/03 05:29:42;;;;;;;5.72;1.35;;;16.60;56.50;;;;;;5111643;28;20324;-67
2022/01/03 05:32:08;;;;;;;7.10;1.42;;;16.50;56.90;;;;;;5111558;28;20457;-67
2022/01/03 05:34:34;;;;;;;10.13;1.48;;;16.30;57.00;;;;;;5111570;28;20044;-67
2022/01/03 05:37:00;;;;;;;9.05;1.65;;;16.20;57.30;;;;;;5112745;28;20506;-67
2022/01/03 05:39:26;;;;;;;5.07;1.23;;;16.20;57.60;;;;;;5111663;28;20043;-67
2022/01/03 05:41:52;;;;;;;6.28;1.10;;;16.10;57.90;;;;;;5111604;28;20039;-67
2022/01/03 05:44:17;;;;;;;5.72;1.10;;;16.00;58.10;;;;;;5111044;28;20123;-67
2022/01/03 05:46:43;;;;;;;8.43;1.63;;;15.90;58.30;;;;;;5112648;28;20075;-67
2022/01/03 05:49:11;;;;;;;5.05;1.45;;;15.90;58.50;;;;;;5111395;28;20430;-67
2022/01/03 05:51:37;;;;;;;8.38;1.55;;;15.80;58.70;;;;;;5111659;28;20039;-67
2022/01/03 05:54:04;;;;;;;9.93;1.98;;;15.70;58.80;;;;;;5111219;28;20043;-67
2022/01/03 05:56:30;;;;;;;6.75;1.30;;;15.70;59.00;;;;;;5111433;28;20042;-67
2022/01/03 05:58:56;;;;;;;4.45;1.23;;;15.60;59.10;;;;;;5111418;28;20047;-67
2022/01/03 06:01:23;;;;;;;7.22;1.30;;;15.60;59.30;;;;;;5111117;28;20047;-67
2022/01/03 06:03:58;;;;;;;10.43;1.63;;;15.50;59.40;;;;;;5111052;28;20122;-67
2022/01/03 06:06:53;;;;;;;8.40;1.00;;;15.50;59.60;;;;;;5111030;28;20119;-67
2022/01/03 06:09:10;;;;;;;9.32;1.20;;;15.40;59.70;;;;;;5111647;28;20063;-67
2022/01/03 06:11:36;;;;;;;6.75;1.95;;;15.40;59.70;;;;;;5111245;28;20104;-67
2022/01/03 06:14:02;;;;;;;12.43;1.98;;;15.40;59.90;;;;;;5110897;28;20392;-67
2022/01/03 06:16:27;;;;;;;8.52;1.73;;;15.30;60.00;;;;;;5112205;28;20035;-67
2022/01/03 06:18:53;;;;;;;5.47;1.10;;;15.30;60.90;;;;;;5112191;28;20042;-68
2022/01/03 06:21:19;;;;;;;6.43;1.30;;;15.20;60.20;;;;;;5112259;28;20027;-67
2022/01/03 06:23:46;;;;;;;10.88;2.15;;;15.20;60.30;;;;;;5111162;28;20480;-68
2022/01/03 06:26:12;;;;;;;9.43;1.80;;;15.20;60.40;;;;;;5111163;28;20078;-67
2022/01/03 06:28:37;;;;;;;9.05;1.15;;;15.10;60.50;;;;;;5110782;28;20448;-67
2022/01/03 06:31:03;;;;;;;8.75;1.95;;;15.10;60.60;;;;;;5112060;28;20035;-68
2022/01/03 06:33:28;;;;;;;11.15;2.33;;;15.10;60.70;;;;;;5111014;28;20028;-67
2022/01/03 06:35:54;;;;;;;9.43;1.88;;;15.10;60.80;;;;;;5112150;28;20531;-67
2022/01/03 06:38:20;;;;;;;7.13;1.50;;;15.00;60.80;;;;;;5112241;28;20028;-67
2022/01/03 06:40:48;;;;;;;11.25;1.83;;;15.00;61.00;;;;;;5110923;28;20475;-68
2022/01/03 06:43:14;;;;;;;8.07;1.48;;;15.00;61.10;;;;;;5110383;28;20044;-67
2022/01/03 06:45:39;;;;;;;8.02;1.27;;;14.90;61.10;;;;;;5109941;28;20123;-67
2022/01/03 06:48:05;;;;;;;10.18;2.33;;;14.90;61.20;;;;;;5111174;28;20071;-67
2022/01/03 06:50:33;;;;;;;13.40;2.58;;;14.80;61.30;;;;;;5109246;28;20123;-67
2022/01/03 06:52:59;;;;;;;10.38;1.75;;;14.80;61.30;;;;;;5111775;28;20035;-70
2022/01/03 06:55:26;;;;;;;10.40;2.67;;;14.80;61.40;;;;;;5110668;28;20398;-68
2022/01/03 06:57:51;;;;;;;15.65;1.92;;;14.80;61.50;;;;;;5114760;28;20057;-67
2022/01/03 07:00:17;;;;;;;9.77;1.90;;;14.80;61.50;;;;;;5115730;28;20550;-67
2022/01/03 07:02:43;;;;;;;8.40;1.65;;;14.80;61.60;;;;;;5114580;28;20076;-67
2022/01/03 07:05:11;;;;;;;12.10;2.55;;;14.80;61.70;;;;;;5114573;28;20494;-67
2022/01/03 07:07:37;;;;;;;13.00;1.85;;;14.70;61.60;;;;;;5114190;28;20048;-67
2022/01/03 07:10:03;;;;;;;14.23;2.00;;;14.70;61.70;;;;;;5113955;28;20047;-67
2022/01/03 07:12:29;;;;;;;9.52;2.20;;;14.70;61.70;;;;;;5115278;28;20475;-67
2022/01/03 07:20:20;;;;;;;11.93;1.80;;;14.70;61.90;;;;;;5129682;28;20043;-67
2022/01/03 07:22:46;;;;;;;9.00;1.63;;;14.70;62.00;;;;;;5130572;28;20377;-67
2022/01/03 07:25:11;;;;;;;12.30;2.55;;;14.70;62.00;;;;;;5129314;28;20043;-67
2022/01/03 07:27:37;;;;;;;9.07;2.03;;;14.60;62.00;;;;;;5128898;28;20040;-67
2022/01/03 07:30:04;;;;;;;10.40;2.00;;;14.60;62.10;;;;;;5128810;28;20043;-67
2022/01/03 07:32:30;;;;;;;10.50;2.15;;;14.60;62.20;;;;;;5129007;28;20047;-67
2022/01/03 07:34:55;;;;;;;9.10;1.73;;;14.60;62.20;;;;;;5128674;28;20100;-67
2022/01/03 07:37:21;;;;;;;7.00;1.92;;;14.60;62.20;;;;;;5129778;28;20040;-67
2022/01/03 07:39:48;;;;;;;10.23;2.00;;;14.60;62.30;;;;;;5128593;28;20039;-67
2022/01/03 07:42:13;;;;;;;9.93;2.60;;;14.60;62.30;;;;;;5128609;28;20047;-67
2022/01/03 07:44:39;;;;;;;11.73;2.60;;;14.60;63.10;;;;;;5129620;28;20028;-67
2022/01/03 07:47:06;;;;;;;8.85;1.92;;;14.50;62.30;;;;;;5129654;28;20035;-67
2022/01/03 07:49:34;;;;;;;11.70;2.28;;;14.50;62.30;;;;;;5111238;28;20051;-67
2022/01/03 07:52:00;;;;;;;12.23;2.88;;;14.50;62.40;;;;;;5128558;28;20128;-67
2022/01/03 07:54:25;;;;;;;11.43;1.73;;;14.50;62.40;;;;;;5128297;28;20169;-67
2022/01/03 07:56:51;;;;;;;10.05;2.03;;;14.50;62.40;;;;;;5128174;28;20130;-67
2022/01/03 07:59:17;;;;;;;12.88;2.67;;;14.50;62.50;;;;;;5129448;28;20096;-67
2022/01/03 08:01:42;;;;;;;14.23;2.55;;;14.50;62.50;;;;;;5129463;28;20065;-67
2022/01/03 08:04:09;;;;;;;11.45;1.77;;;14.50;62.50;;;;;;5128084;28;20043;-67
2022/01/03 08:06:34;;;;;;;10.43;2.25;;;14.50;62.50;;;;;;5145340;27;20043;-67
2022/01/03 08:09:00;;;;;;;11.60;2.95;;;14.50;62.50;;;;;;5129298;27;20035;-67
2022/01/03 08:11:26;;;;;;;12.18;2.92;;;14.50;62.50;;;;;;5129343;27;20524;-67
2022/01/03 08:13:55;;;;;;;12.20;2.88;;;14.50;62.60;;;;;;5127825;28;20050;-67
2022/01/03 08:16:24;;;;;;;13.45;2.47;;;14.40;62.60;;;;;;5127548;27;20063;-67
2022/01/03 08:18:49;;;;;;;11.88;1.92;;;14.40;62.70;;;;;;5127965;28;20040;-67
2022/01/03 08:21:15;;;;;;;12.13;2.55;;;14.40;62.60;;;;;;5128022;28;20390;-67
2022/01/03 08:23:40;;;;;;;7.57;2.33;;;14.50;62.60;;;;;;5127648;27;20474;-67
2022/01/03 08:26:06;;;;;;;14.90;2.75;;;14.40;62.70;;;;;;5127972;27;20039;-67
2022/01/03 08:28:32;;;;;;;7.72;2.63;;;14.40;62.70;;;;;;5117419;28;20035;-67
2022/01/03 08:30:57;;;;;;;13.27;2.53;;;14.50;62.70;;;;;;5115106;28;20395;-67
2022/01/03 08:33:23;;;;;;;7.63;2.53;;;14.40;62.60;;;;;;5114091;28;20127;-67
2022/01/03 08:35:49;;;;;;;12.40;1.98;;;14.40;62.70;;;;;;5113983;28;20055;-67
2022/01/03 08:38:15;;;;;;;11.57;1.95;;;14.50;62.70;;;;;;5114087;28;20122;-67
2022/01/03 08:40:40;;;;;;;11.73;2.42;;;14.40;62.70;;;;;;5115066;28;20376;-67
2022/01/03 08:43:06;;;;;;;10.57;2.40;;;14.40;62.70;;;;;;5113771;28;20043;-67
2022/01/03 08:45:32;;;;;;;11.85;2.67;;;14.40;62.70;;;;;;5114824;28;20115;-67
2022/01/03 08:47:58;;;;;;;11.13;2.45;;;14.40;62.70;;;;;;5114864;28;20058;-67
2022/01/03 08:50:24;;;;;;;8.55;1.90;;;14.40;62.70;;;;;;5113782;28;20043;-71
2022/01/03 08:52:50;;;;;;;11.45;1.85;;;14.40;62.70;;;;;;5113593;28;20410;-67
2022/01/03 08:55:16;;;;;;;10.23;3.05;;;14.40;62.70;;;;;;5113399;28;20043;-67
2022/01/03 08:57:47;;;;;;;8.95;2.17;;;14.40;62.80;;;;;;5113561;28;20044;-67
2022/01/03 09:00:14;;;;;;;13.02;2.67;;;14.40;62.70;;;;;;5113776;28;20043;-67
2022/01/03 09:02:41;;;;;;;12.63;2.10;;;14.40;62.70;;;;;;5113271;28;20047;-67
2022/01/03 09:05:07;;;;;;;11.23;2.70;;;14.40;62.80;;;;;;5113551;28;20039;-67
2022/01/03 09:07:36;;;;;;;11.52;2.58;;;14.40;62.70;;;;;;5113504;28;20062;-67
2022/01/03 09:10:06;;;;;;;13.55;2.92;;;14.40;62.80;;;;;;5114576;28;20075;-67
2022/01/03 09:12:32;;;;;;;9.30;2.33;;;14.40;62.80;;;;;;5113163;28;20039;-67
2022/01/03 09:14:58;;;;;;;10.18;2.10;;;14.40;62.70;;;;;;5114351;28;20054;-67
2022/01/03 09:17:25;;;;;;;12.50;2.20;;;14.40;62.70;;;;;;5112633;28;20545;-67
2022/01/03 09:19:52;;;;;;;14.00;2.13;;;14.40;63.50;;;;;;5114527;28;20050;-67
2022/01/03 09:22:24;;;;;;;9.38;2.10;;;14.40;62.70;;;;;;5113181;28;20044;-67
2022/01/03 09:28:48;;;;;;;9.85;2.35;;;14.40;62.70;;;;;;5114365;28;20085;-67
2022/01/03 09:30:21;;;;;;;12.60;2.65;;;14.40;62.70;;;;;;5114126;28;20047;-67
2022/01/03 09:32:46;;;;;;;10.27;1.90;;;14.40;62.70;;;;;;5112690;28;20047;-67
2022/01/03 09:35:12;;;;;;;11.77;2.30;;;14.40;62.60;;;;;;5112848;28;20157;-67
2022/01/03 09:37:39;;;;;;;8.73;2.15;;;14.40;62.60;;;;;;5112622;28;20040;-67
2022/01/03 09:40:09;;;;;;;10.05;1.83;;;14.40;62.60;;;;;;5112968;28;20467;-69
2022/01/03 09:42:35;;;;;;;10.10;1.70;;;14.40;62.60;;;;;;5112785;28;20108;-67
2022/01/03 09:45:05;;;;;;;10.35;2.08;;;14.40;62.50;;;;;;5114000;27;20040;-67
2022/01/03 09:47:32;;;;;;;7.93;2.13;;;14.40;62.50;;;;;;5112699;28;20143;-67
2022/01/03 09:49:59;;;;;;;7.45;2.22;;;14.40;62.50;;;;;;5113802;28;20032;-67
2022/01/03 09:52:26;;;;;;;8.23;2.00;;;14.40;62.50;;;;;;5113649;28;20039;-67
2022/01/03 09:54:53;;;;;;;10.98;2.15;;;14.40;62.50;;;;;;5112594;28;20049;-67
2022/01/03 09:57:21;;;;;;;7.53;1.88;;;14.40;62.50;;;;;;5112129;28;20048;-67
2022/01/03 09:59:47;;;;;;;9.45;2.13;;;14.40;62.40;;;;;;5113607;27;20023;-67
2022/01/03 10:02:15;;;;;;;10.20;2.13;;;14.40;62.40;;;;;;5112394;28;20499;-67
2022/01/03 10:04:41;;;;;;;15.02;2.22;;;14.40;62.40;;;;;;5112464;28;20064;-67
2022/01/03 10:07:10;;;;;;;11.65;2.20;;;14.40;62.40;;;;;;5112047;28;20479;-67
2022/01/03 10:09:38;;;;;;;15.02;2.75;;;14.50;62.40;;;;;;5112090;28;20055;-67
2022/01/03 10:12:04;;;;;;;8.73;2.33;;;14.40;62.30;;;;;;5112014;28;20035;-67
2022/01/03 10:14:30;;;;;;;8.77;1.60;;;14.40;62.40;;;;;;5113334;28;20032;-67
2022/01/03 10:16:55;;;;;;;13.63;2.13;;;14.40;62.30;;;;;;5111665;28;20399;-67
2022/01/03 10:19:21;;;;;;;11.07;2.15;;;14.40;62.40;;;;;;5113258;28;20042;-67
2022/01/03 10:21:50;;;;;;;9.57;2.00;;;14.40;62.30;;;;;;5113177;27;20093;-67
2022/01/03 10:24:18;;;;;;;9.63;2.25;;;14.40;62.40;;;;;;5112008;28;20039;-67
2022/01/03 10:26:58;;;;;;;10.30;1.63;;;14.40;62.30;;;;;;5112005;28;20108;-67
2022/01/03 10:29:27;;;;;;;12.70;2.20;;;14.50;62.30;;;;;;5112899;28;20479;-67
2022/01/03 10:31:55;;;;;;;13.30;2.45;;;14.50;62.30;;;;;;5111951;28;20134;-67
2022/01/03 10:34:24;;;;;;;6.97;2.03;;;14.50;62.20;;;;;;5111728;28;20403;-67
2022/01/03 10:36:51;;;;;;;10.90;2.10;;;14.50;62.20;;;;;;5112845;28;20135;-67
2022/01/03 10:42:17;;;;;;;8.88;1.92;;;14.50;62.20;;;;;;5130316;27;20618;-67
2022/01/03 10:44:44;;;;;;;8.18;2.15;;;14.50;62.10;;;;;;5129103;28;20047;-67
2022/01/03 10:47:15;;;;;;;9.93;1.95;;;14.50;62.10;;;;;;5129199;28;20058;-67
2022/01/03 10:49:42;;;;;;;10.80;2.17;;;14.50;62.10;;;;;;5128758;28;20047;-67
2022/01/03 10:52:33;;;;;;;7.18;1.83;;;14.40;62.00;;;;;;5129132;28;20051;-67
2022/01/03 10:57:58;;;;;;;11.10;2.60;;;14.50;62.10;;;;;;5130243;27;20353;-67
2022/01/03 11:00:34;;;;;;;12.00;2.00;;;14.40;62.00;;;;;;5129310;28;20130;-67
2022/01/03 11:05:53;;;;;;;12.77;2.45;;;14.40;62.10;;;;;;5109753;27;20600;-67
2022/01/03 11:11:08;;;;;;;10.23;2.40;;;14.40;62.10;;;;;;5108206;28;20055;-67
2022/01/03 11:13:38;;;;;;;10.95;2.00;;;14.40;62.10;;;;;;5108591;28;20471;-67
2022/01/03 11:16:06;;;;;;;10.23;2.33;;;14.40;62.10;;;;;;5108648;28;20368;-67
2022/01/03 11:21:17;;;;;;;9.95;3.08;;;14.50;62.10;;;;;;5111524;27;1162165;-67
2022/01/03 11:26:28;;;;;;;7.03;1.45;;;14.50;62.10;;;;;;5130214;27;20402;-67
2022/01/03 11:28:54;;;;;;;12.90;3.47;;;14.40;62.00;;;;;;5129348;28;20203;-67
2022/01/03 11:31:21;;;;;;;9.93;2.25;;;14.50;62.10;;;;;;5128906;28;20479;-67
2022/01/03 11:33:49;;;;;;;11.73;3.10;;;14.40;62.00;;;;;;5130096;27;20139;-67
2022/01/03 11:36:18;;;;;;;10.73;1.55;;;14.50;62.10;;;;;;5129112;28;20051;-67
2022/01/03 11:38:45;;;;;;;9.88;1.98;;;14.40;62.00;;;;;;5129141;27;20432;-67
2022/01/03 11:41:11;;;;;;;9.40;1.98;;;14.50;62.10;;;;;;5130010;27;20077;-67
2022/01/03 11:43:40;;;;;;;8.10;2.08;;;14.40;62.00;;;;;;5129046;28;20035;-67
2022/01/03 11:46:06;;;;;;;9.43;2.35;;;14.40;62.00;;;;;;5128576;28;20039;-67
2022/01/03 11:48:35;;;;;;;13.23;2.83;;;14.40;62.00;;;;;;5146132;27;20045;-67
2022/01/03 11:51:05;;;;;;;9.05;2.10;;;14.50;62.10;;;;;;5130016;27;20039;-67
2022/01/03 11:53:34;;;;;;;11.77;2.65;;;14.40;62.00;;;;;;5128770;28;20046;-67
2022/01/03 11:56:09;;;;;;;10.25;2.33;;;14.50;62.10;;;;;;5128692;28;20436;-67
2022/01/03 12:04:14;;;;;;;12.13;2.67;;;14.50;62.00;;;;;;5087937;28;20480;-67
2022/01/03 12:06:41;;;;;;;7.90;1.50;;;14.40;62.00;;;;;;5088110;28;20040;-67
2022/01/03 12:09:10;;;;;;;12.57;2.00;;;14.40;62.00;;;;;;5089306;28;20072;-67
2022/01/03 12:11:53;;;;;;;8.75;1.85;;;14.50;62.00;;;;;;5087892;28;20036;-67
2022/01/03 12:14:20;;;;;;;12.60;2.88;;;14.40;61.90;;;;;;5087977;28;20131;-67
2022/01/03 12:25:00;;;;;;;9.63;2.42;;;14.40;62.00;;;;;;5109861;27;20387;-68
2022/01/03 12:30:18;;;;;;;12.27;2.85;;;14.50;62.00;;;;;;5089486;28;20435;-67
2022/01/03 12:35:49;;;;;;;10.38;1.50;;;14.50;61.90;;;;;;5150963;27;20582;-67
2022/01/03 12:38:23;;;;;;;9.35;2.40;;;14.40;61.80;;;;;;5128915;28;20071;-67
2022/01/03 12:40:52;;;;;;;9.65;1.67;;;14.40;61.70;;;;;;5129252;28;20039;-67
2022/01/03 12:43:33;;;;;;;9.48;1.48;;;14.40;61.70;;;;;;5130173;27;20031;-66
2022/01/03 12:46:01;;;;;;;;;;;14.50;61.80;;;;;;5129305;28;20039;-67
2022/01/03 12:48:32;;;;;;;10.50;2.08;;;14.50;61.60;;;;;;5128965;28;20394;-67
2022/01/03 12:53:41;;;;;;;10.18;2.65;;;14.40;61.70;;;;;;5149511;27;1308700;-67
2022/01/03 12:58:50;;;;;;;10.50;2.03;;;14.50;61.60;;;;;;5130166;27;20379;-67
2022/01/03 13:03:58;;;;;;;10.35;1.95;;;14.50;61.60;;;;;;5129693;27;20357;-67
2022/01/03 13:09:10;;;;;;;11.25;1.98;;;14.50;61.60;;;;;;5150898;27;20110;-67
2022/01/03 13:14:22;;;;;;;9.20;1.67;;;14.50;61.50;;;;;;5130135;27;20357;-67
2022/01/03 13:16:55;;;;;;;8.40;2.03;;;14.60;61.50;;;;;;5128892;28;20112;-67
2022/01/03 13:19:25;;;;;;;10.55;2.13;;;14.60;62.20;;;;;;5128865;28;20069;-67
2022/01/03 13:22:00;;;;;;;12.05;2.28;;;14.60;61.40;;;;;;5129162;28;20431;-67
2022/01/03 13:27:09;;;;;;;14.35;3.03;;;14.60;61.40;;;;;;5130253;27;20414;-67
2022/01/03 13:35:03;;;;;;;9.80;1.75;;;14.60;61.20;;;;;;5130274;27;20386;-67
2022/01/03 13:37:29;;;;;;;11.60;2.40;;;14.50;61.20;;;;;;5128992;28;20526;-67
2022/01/03 13:39:57;;;;;;;13.40;2.08;;;14.50;61.20;;;;;;5128817;28;20490;-67
2022/01/03 13:42:35;;;;;;;6.93;1.67;;;14.60;61.30;;;;;;5129195;28;20100;-67
2022/01/03 13:45:16;;;;;;;14.57;2.13;;;14.50;61.20;;;;;;5128721;28;20518;-67
2022/01/03 13:50:28;;;;;;;14.13;2.63;;;14.50;61.20;;;;;;5129828;28;20116;-67
2022/01/03 13:53:04;;;;;;;8.88;1.75;;;14.50;61.20;;;;;;5129873;28;20490;-67
2022/01/03 13:55:33;;;;;;;8.43;2.00;;;14.50;61.20;;;;;;5129073;28;20051;-67
2022/01/03 13:58:16;;;;;;;9.50;2.90;;;14.60;61.20;;;;;;5128612;28;20567;-67
2022/01/03 14:03:24;;;;;;;10.77;2.15;;;14.60;61.30;;;;;;5089454;28;20390;-67
2022/01/03 14:06:10;;;;;;;10.55;2.63;;;14.50;61.20;;;;;;5088259;28;20036;-67
2022/01/03 14:08:39;;;;;;;9.63;1.45;;;14.50;61.20;;;;;;5088145;28;20048;-67